sensor_id;sensor_type;location;lat;lon;timestamp;P1;durP1;ratioP1;P2;durP2;ratioP2
4555;SDS011;2290;48.674;9.018;2023-01-19T00:02:14;7.37;;;3.90;;
4555;SDS011;2290;48.674;9.018;2023-01-19T00:04:39;6.97;;;4.00;;
4555;SDS011;2290;48.674;9.018;2023-01-19T00:07:06;10.03;;;4.63;;
4555;SDS011;2290;48.674;9.018;2023-01-19T00:09:32;6.90;;;3.60;;
4555;SDS011;2290;48.674;9.018;2023-01-19T00:11:58;6.37;;;4.40;;
4555;SDS011;2290;48.674;9.018;2023-01-19T00:14:24;7.13;;;3.83;;
4555;SDS011;2290;48.674;9.018;2023-01-19T00:16:49;8.30;;;4.40;;
4555;SDS011;2290;48.674;9.018;2023-01-19T00:19:15;6.97;;;4.00;;
4555;SDS011;2290;48.674;9.018;2023-01-19T00:21:40;7.93;;;4.30;;
4555;SDS011;2290;48.674;9.018;2023-01-19T00:24:06;8.90;;;5.03;;
4555;SDS011;2290;48.674;9.018;2023-01-19T00:26:32;8.30;;;4.90;;
4555;SDS011;2290;48.674;9.018;2023-01-19T00:28:57;7.20;;;3.93;;
4555;SDS011;2290;48.674;9.018;2023-01-19T00:31:23;6.23;;;3.83;;
4555;SDS011;2290;48.674;9.018;2023-01-19T00:33:48;8.57;;;4.27;;
4555;SDS011;2290;48.674;9.018;2023-01-19T00:36:16;7.50;;;3.57;;
4555;SDS011;2290;48.674;9.018;2023-01-19T00:38:42;6.83;;;4.10;;
4555;SDS011;2290;48.674;9.018;2023-01-19T00:41:07;4.50;;;3.67;;
4555;SDS011;2290;48.674;9.018;2023-01-19T00:43:33;5.00;;;3.57;;
4555;SDS011;2290;48.674;9.018;2023-01-19T00:45:58;6.50;;;3.93;;
4555;SDS011;2290;48.674;9.018;2023-01-19T00:48:24;5.47;;;3.63;;
4555;SDS011;2290;48.674;9.018;2023-01-19T00:50:51;4.80;;;3.87;;
4555;SDS011;2290;48.674;9.018;2023-01-19T00:53:16;5.70;;;3.87;;
4555;SDS011;2290;48.674;9.018;2023-01-19T00:55:42;6.17;;;4.07;;
4555;SDS011;2290;48.674;9.018;2023-01-19T00:58:07;7.67;;;4.10;;
4555;SDS011;2290;48.674;9.018;2023-01-19T01:00:33;5.67;;;3.77;;
4555;SDS011;2290;48.674;9.018;2023-01-19T01:02:59;6.90;;;3.97;;
4555;SDS011;2290;48.674;9.018;2023-01-19T01:05:24;8.13;;;4.90;;
4555;SDS011;2290;48.674;9.018;2023-01-19T01:07:50;4.90;;;3.50;;
4555;SDS011;2290;48.674;9.018;2023-01-19T01:10:17;5.00;;;3.40;;
4555;SDS011;2290;48.674;9.018;2023-01-19T01:12:45;7.10;;;3.30;;
4555;SDS011;2290;48.674;9.018;2023-01-19T01:15:11;4.80;;;3.57;;
4555;SDS011;2290;48.674;9.018;2023-01-19T01:17:38;5.60;;;4.03;;
4555;SDS011;2290;48.674;9.018;2023-01-19T01:20:21;12.23;;;4.47;;
4555;SDS011;2290;48.674;9.018;2023-01-19T01:22:52;6.87;;;4.20;;
4555;SDS011;2290;48.674;9.018;2023-01-19T01:25:19;5.63;;;3.53;;
4555;SDS011;2290;48.674;9.018;2023-01-19T01:27:47;8.67;;;3.93;;
4555;SDS011;2290;48.674;9.018;2023-01-19T01:30:13;5.97;;;3.80;;
4555;SDS011;2290;48.674;9.018;2023-01-19T01:32:39;10.70;;;4.60;;
4555;SDS011;2290;48.674;9.018;2023-01-19T01:35:05;6.00;;;2.97;;
4555;SDS011;2290;48.674;9.018;2023-01-19T01:37:33;5.50;;;3.37;;
4555;SDS011;2290;48.674;9.018;2023-01-19T01:39:59;5.47;;;3.10;;
4555;SDS011;2290;48.674;9.018;2023-01-19T01:42:28;7.87;;;3.97;;
4555;SDS011;2290;48.674;9.018;2023-01-19T01:44:55;5.63;;;3.63;;
4555;SDS011;2290;48.674;9.018;2023-01-19T01:47:27;7.10;;;3.60;;
4555;SDS011;2290;48.674;9.018;2023-01-19T01:49:56;7.67;;;3.60;;
4555;SDS011;2290;48.674;9.018;2023-01-19T01:52:26;5.60;;;3.37;;
4555;SDS011;2290;48.674;9.018;2023-01-19T01:54:53;9.83;;;3.90;;
4555;SDS011;2290;48.674;9.018;2023-01-19T01:57:20;4.10;;;3.10;;
4555;SDS011;2290;48.674;9.018;2023-01-19T01:59:47;8.17;;;4.20;;
4555;SDS011;2290;48.674;9.018;2023-01-19T02:02:16;8.73;;;4.50;;
4555;SDS011;2290;48.674;9.018;2023-01-19T02:05:05;4.80;;;3.50;;
4555;SDS011;2290;48.674;9.018;2023-01-19T02:07:49;8.70;;;4.33;;
4555;SDS011;2290;48.674;9.018;2023-01-19T02:10:42;4.80;;;3.13;;
4555;SDS011;2290;48.674;9.018;2023-01-19T02:13:28;4.70;;;3.30;;
4555;SDS011;2290;48.674;9.018;2023-01-19T02:15:56;10.20;;;3.60;;
4555;SDS011;2290;48.674;9.018;2023-01-19T02:18:25;6.27;;;3.23;;
4555;SDS011;2290;48.674;9.018;2023-01-19T02:23:51;5.37;;;3.93;;
4555;SDS011;2290;48.674;9.018;2023-01-19T02:26:19;4.63;;;3.60;;
4555;SDS011;2290;48.674;9.018;2023-01-19T02:28:48;7.70;;;3.87;;
4555;SDS011;2290;48.674;9.018;2023-01-19T02:31:35;5.57;;;3.10;;
4555;SDS011;2290;48.674;9.018;2023-01-19T02:34:03;8.53;;;4.20;;
4555;SDS011;2290;48.674;9.018;2023-01-19T02:40:05;5.17;;;3.30;;
4555;SDS011;2290;48.674;9.018;2023-01-19T02:42:26;4.47;;;3.33;;
4555;SDS011;2290;48.674;9.018;2023-01-19T02:44:56;6.80;;;3.63;;
4555;SDS011;2290;48.674;9.018;2023-01-19T02:47:22;5.00;;;4.00;;
4555;SDS011;2290;48.674;9.018;2023-01-19T02:49:58;9.93;;;3.53;;
4555;SDS011;2290;48.674;9.018;2023-01-19T02:52:24;6.57;;;3.07;;
4555;SDS011;2290;48.674;9.018;2023-01-19T03:03:49;4.77;;;3.37;;
4555;SDS011;2290;48.674;9.018;2023-01-19T03:06:21;5.90;;;2.60;;
4555;SDS011;2290;48.674;9.018;2023-01-19T03:09:01;12.20;;;3.27;;
4555;SDS011;2290;48.674;9.018;2023-01-19T03:11:33;7.20;;;3.90;;
4555;SDS011;2290;48.674;9.018;2023-01-19T03:14:10;5.67;;;3.57;;
4555;SDS011;2290;48.674;9.018;2023-01-19T03:16:40;9.33;;;3.60;;
4555;SDS011;2290;48.674;9.018;2023-01-19T03:19:25;5.53;;;3.50;;
4555;SDS011;2290;48.674;9.018;2023-01-19T03:21:54;5.20;;;3.37;;
4555;SDS011;2290;48.674;9.018;2023-01-19T03:24:23;4.90;;;3.30;;
4555;SDS011;2290;48.674;9.018;2023-01-19T03:26:53;5.00;;;3.77;;
4555;SDS011;2290;48.674;9.018;2023-01-19T03:29:28;9.50;;;4.13;;
4555;SDS011;2290;48.674;9.018;2023-01-19T03:31:59;6.30;;;4.20;;
4555;SDS011;2290;48.674;9.018;2023-01-19T03:34:30;6.17;;;3.43;;
4555;SDS011;2290;48.674;9.018;2023-01-19T03:36:57;5.10;;;3.57;;
4555;SDS011;2290;48.674;9.018;2023-01-19T03:39:26;7.53;;;4.10;;
4555;SDS011;2290;48.674;9.018;2023-01-19T03:42:04;5.63;;;3.40;;
4555;SDS011;2290;48.674;9.018;2023-01-19T03:44:32;6.90;;;3.33;;
4555;SDS011;2290;48.674;9.018;2023-01-19T03:47:01;6.73;;;4.10;;
4555;SDS011;2290;48.674;9.018;2023-01-19T03:49:29;6.43;;;4.20;;
4555;SDS011;2290;48.674;9.018;2023-01-19T03:51:55;6.87;;;4.23;;
4555;SDS011;2290;48.674;9.018;2023-01-19T03:54:22;8.63;;;3.93;;
4555;SDS011;2290;48.674;9.018;2023-01-19T03:56:48;4.63;;;3.07;;
4555;SDS011;2290;48.674;9.018;2023-01-19T03:59:14;5.47;;;4.50;;
4555;SDS011;2290;48.674;9.018;2023-01-19T04:01:41;7.70;;;3.80;;
4555;SDS011;2290;48.674;9.018;2023-01-19T04:04:07;7.93;;;3.77;;
4555;SDS011;2290;48.674;9.018;2023-01-19T04:06:32;5.60;;;3.20;;
4555;SDS011;2290;48.674;9.018;2023-01-19T04:08:58;6.90;;;3.37;;
4555;SDS011;2290;48.674;9.018;2023-01-19T04:11:24;7.80;;;3.80;;
4555;SDS011;2290;48.674;9.018;2023-01-19T04:13:49;7.50;;;3.13;;
4555;SDS011;2290;48.674;9.018;2023-01-19T04:16:15;8.37;;;4.30;;
4555;SDS011;2290;48.674;9.018;2023-01-19T04:18:44;6.37;;;3.40;;
4555;SDS011;2290;48.674;9.018;2023-01-19T04:21:10;9.07;;;3.73;;
4555;SDS011;2290;48.674;9.018;2023-01-19T04:23:35;8.13;;;3.87;;
4555;SDS011;2290;48.674;9.018;2023-01-19T04:26:04;6.47;;;3.43;;
4555;SDS011;2290;48.674;9.018;2023-01-19T04:28:32;8.03;;;4.33;;
4555;SDS011;2290;48.674;9.018;2023-01-19T04:30:59;5.67;;;3.90;;
4555;SDS011;2290;48.674;9.018;2023-01-19T04:33:25;8.73;;;3.77;;
4555;SDS011;2290;48.674;9.018;2023-01-19T04:35:52;4.53;;;3.50;;
4555;SDS011;2290;48.674;9.018;2023-01-19T04:38:19;7.60;;;4.10;;
4555;SDS011;2290;48.674;9.018;2023-01-19T04:40:45;6.67;;;3.77;;
4555;SDS011;2290;48.674;9.018;2023-01-19T04:43:10;9.33;;;4.03;;
4555;SDS011;2290;48.674;9.018;2023-01-19T04:45:36;7.13;;;3.80;;
4555;SDS011;2290;48.674;9.018;2023-01-19T04:48:02;9.33;;;3.23;;
4555;SDS011;2290;48.674;9.018;2023-01-19T04:50:29;5.80;;;3.50;;
4555;SDS011;2290;48.674;9.018;2023-01-19T04:52:55;6.27;;;4.40;;
4555;SDS011;2290;48.674;9.018;2023-01-19T04:55:21;7.73;;;3.80;;
4555;SDS011;2290;48.674;9.018;2023-01-19T04:57:47;6.57;;;3.97;;
4555;SDS011;2290;48.674;9.018;2023-01-19T05:02:48;5.90;;;3.40;;
4555;SDS011;2290;48.674;9.018;2023-01-19T05:05:13;7.67;;;3.87;;
4555;SDS011;2290;48.674;9.018;2023-01-19T05:07:41;4.90;;;3.10;;
4555;SDS011;2290;48.674;9.018;2023-01-19T05:10:07;8.27;;;4.10;;
4555;SDS011;2290;48.674;9.018;2023-01-19T05:12:33;14.70;;;4.50;;
4555;SDS011;2290;48.674;9.018;2023-01-19T05:14:58;7.57;;;4.00;;
4555;SDS011;2290;48.674;9.018;2023-01-19T05:17:25;11.03;;;4.60;;
4555;SDS011;2290;48.674;9.018;2023-01-19T05:19:51;5.43;;;3.70;;
4555;SDS011;2290;48.674;9.018;2023-01-19T05:22:16;4.90;;;3.50;;
4555;SDS011;2290;48.674;9.018;2023-01-19T05:24:42;5.20;;;4.10;;
4555;SDS011;2290;48.674;9.018;2023-01-19T05:27:07;6.40;;;3.17;;
4555;SDS011;2290;48.674;9.018;2023-01-19T05:29:33;12.70;;;4.20;;
4555;SDS011;2290;48.674;9.018;2023-01-19T05:31:59;3.63;;;3.13;;
4555;SDS011;2290;48.674;9.018;2023-01-19T05:34:25;10.13;;;3.37;;
4555;SDS011;2290;48.674;9.018;2023-01-19T05:36:50;8.10;;;4.30;;
4555;SDS011;2290;48.674;9.018;2023-01-19T05:39:16;8.57;;;4.40;;
4555;SDS011;2290;48.674;9.018;2023-01-19T05:41:42;5.90;;;3.80;;
4555;SDS011;2290;48.674;9.018;2023-01-19T05:44:09;11.00;;;4.07;;
4555;SDS011;2290;48.674;9.018;2023-01-19T05:46:35;5.43;;;3.30;;
4555;SDS011;2290;48.674;9.018;2023-01-19T05:49:01;7.93;;;4.10;;
4555;SDS011;2290;48.674;9.018;2023-01-19T05:51:29;9.87;;;4.30;;
4555;SDS011;2290;48.674;9.018;2023-01-19T05:53:59;8.50;;;3.63;;
4555;SDS011;2290;48.674;9.018;2023-01-19T05:56:25;5.60;;;3.27;;
4555;SDS011;2290;48.674;9.018;2023-01-19T05:58:51;5.90;;;3.07;;
4555;SDS011;2290;48.674;9.018;2023-01-19T06:01:16;6.87;;;4.33;;
4555;SDS011;2290;48.674;9.018;2023-01-19T06:03:42;5.30;;;3.33;;
4555;SDS011;2290;48.674;9.018;2023-01-19T06:06:08;6.37;;;4.10;;
4555;SDS011;2290;48.674;9.018;2023-01-19T06:08:33;8.50;;;3.40;;
4555;SDS011;2290;48.674;9.018;2023-01-19T06:10:59;7.70;;;3.77;;
4555;SDS011;2290;48.674;9.018;2023-01-19T06:13:24;6.53;;;3.70;;
4555;SDS011;2290;48.674;9.018;2023-01-19T06:15:59;6.97;;;3.60;;
4555;SDS011;2290;48.674;9.018;2023-01-19T06:18:26;9.03;;;3.83;;
4555;SDS011;2290;48.674;9.018;2023-01-19T06:20:52;9.50;;;3.80;;
4555;SDS011;2290;48.674;9.018;2023-01-19T06:23:23;7.30;;;3.63;;
4555;SDS011;2290;48.674;9.018;2023-01-19T06:25:49;7.30;;;4.43;;
4555;SDS011;2290;48.674;9.018;2023-01-19T06:28:16;5.73;;;3.43;;
4555;SDS011;2290;48.674;9.018;2023-01-19T06:30:41;6.23;;;3.10;;
4555;SDS011;2290;48.674;9.018;2023-01-19T06:33:07;6.37;;;3.13;;
4555;SDS011;2290;48.674;9.018;2023-01-19T06:35:33;4.90;;;3.27;;
4555;SDS011;2290;48.674;9.018;2023-01-19T06:37:59;5.37;;;2.60;;
4555;SDS011;2290;48.674;9.018;2023-01-19T06:40:25;4.30;;;3.00;;
4555;SDS011;2290;48.674;9.018;2023-01-19T06:42:50;8.87;;;3.70;;
4555;SDS011;2290;48.674;9.018;2023-01-19T06:45:17;5.20;;;3.20;;
4555;SDS011;2290;48.674;9.018;2023-01-19T06:47:42;5.50;;;3.10;;
4555;SDS011;2290;48.674;9.018;2023-01-19T06:50:10;9.80;;;3.53;;
4555;SDS011;2290;48.674;9.018;2023-01-19T06:52:36;7.10;;;2.30;;
4555;SDS011;2290;48.674;9.018;2023-01-19T06:57:41;6.40;;;3.63;;
4555;SDS011;2290;48.674;9.018;2023-01-19T07:02:43;6.73;;;3.47;;
4555;SDS011;2290;48.674;9.018;2023-01-19T07:05:09;4.97;;;2.93;;
4555;SDS011;2290;48.674;9.018;2023-01-19T07:07:38;6.47;;;3.50;;
4555;SDS011;2290;48.674;9.018;2023-01-19T07:10:07;7.03;;;3.17;;
4555;SDS011;2290;48.674;9.018;2023-01-19T07:12:35;3.30;;;2.00;;
4555;SDS011;2290;48.674;9.018;2023-01-19T07:22:53;3.90;;;2.70;;
4555;SDS011;2290;48.674;9.018;2023-01-19T07:25:19;3.37;;;2.40;;
4555;SDS011;2290;48.674;9.018;2023-01-19T07:27:45;7.57;;;2.87;;
4555;SDS011;2290;48.674;9.018;2023-01-19T07:30:11;4.53;;;2.60;;
4555;SDS011;2290;48.674;9.018;2023-01-19T07:32:38;7.40;;;3.10;;
4555;SDS011;2290;48.674;9.018;2023-01-19T07:35:05;5.93;;;3.33;;
4555;SDS011;2290;48.674;9.018;2023-01-19T07:37:31;5.90;;;2.97;;
4555;SDS011;2290;48.674;9.018;2023-01-19T07:39:56;4.83;;;2.80;;
4555;SDS011;2290;48.674;9.018;2023-01-19T07:42:22;6.90;;;2.63;;
4555;SDS011;2290;48.674;9.018;2023-01-19T07:44:47;3.73;;;2.67;;
4555;SDS011;2290;48.674;9.018;2023-01-19T07:47:13;4.13;;;2.87;;
4555;SDS011;2290;48.674;9.018;2023-01-19T07:49:39;4.40;;;3.30;;
4555;SDS011;2290;48.674;9.018;2023-01-19T07:52:04;3.43;;;2.50;;
4555;SDS011;2290;48.674;9.018;2023-01-19T07:54:30;7.03;;;3.33;;
4555;SDS011;2290;48.674;9.018;2023-01-19T07:56:55;3.60;;;2.87;;
4555;SDS011;2290;48.674;9.018;2023-01-19T08:01:55;6.27;;;2.90;;
4555;SDS011;2290;48.674;9.018;2023-01-19T08:04:23;7.10;;;2.93;;
4555;SDS011;2290;48.674;9.018;2023-01-19T08:06:51;5.90;;;3.00;;
4555;SDS011;2290;48.674;9.018;2023-01-19T08:09:17;4.57;;;2.53;;
4555;SDS011;2290;48.674;9.018;2023-01-19T08:11:43;8.00;;;4.10;;
4555;SDS011;2290;48.674;9.018;2023-01-19T08:14:08;3.90;;;2.77;;
4555;SDS011;2290;48.674;9.018;2023-01-19T08:16:34;6.63;;;3.00;;
4555;SDS011;2290;48.674;9.018;2023-01-19T08:19:00;4.80;;;2.70;;
4555;SDS011;2290;48.674;9.018;2023-01-19T08:21:27;3.97;;;2.60;;
4555;SDS011;2290;48.674;9.018;2023-01-19T08:23:53;3.93;;;2.77;;
4555;SDS011;2290;48.674;9.018;2023-01-19T08:26:29;4.10;;;2.93;;
4555;SDS011;2290;48.674;9.018;2023-01-19T08:28:58;3.70;;;2.37;;
4555;SDS011;2290;48.674;9.018;2023-01-19T08:31:25;11.07;;;2.83;;
4555;SDS011;2290;48.674;9.018;2023-01-19T08:33:51;4.00;;;2.60;;
4555;SDS011;2290;48.674;9.018;2023-01-19T08:36:18;7.23;;;3.00;;
4555;SDS011;2290;48.674;9.018;2023-01-19T08:38:45;3.83;;;2.53;;
4555;SDS011;2290;48.674;9.018;2023-01-19T08:41:11;18.90;;;3.20;;
4555;SDS011;2290;48.674;9.018;2023-01-19T08:43:37;4.73;;;1.97;;
4555;SDS011;2290;48.674;9.018;2023-01-19T08:46:03;5.83;;;2.70;;
4555;SDS011;2290;48.674;9.018;2023-01-19T08:48:31;4.97;;;2.90;;
4555;SDS011;2290;48.674;9.018;2023-01-19T08:50:57;4.60;;;2.87;;
4555;SDS011;2290;48.674;9.018;2023-01-19T08:53:23;4.90;;;2.50;;
4555;SDS011;2290;48.674;9.018;2023-01-19T08:55:49;6.83;;;2.30;;
4555;SDS011;2290;48.674;9.018;2023-01-19T08:58:21;3.33;;;2.70;;
4555;SDS011;2290;48.674;9.018;2023-01-19T09:00:47;4.77;;;2.57;;
4555;SDS011;2290;48.674;9.018;2023-01-19T09:03:13;4.63;;;2.60;;
4555;SDS011;2290;48.674;9.018;2023-01-19T09:05:38;4.50;;;2.47;;
4555;SDS011;2290;48.674;9.018;2023-01-19T09:08:09;3.10;;;2.10;;
4555;SDS011;2290;48.674;9.018;2023-01-19T09:10:36;6.57;;;3.10;;
4555;SDS011;2290;48.674;9.018;2023-01-19T09:13:03;3.43;;;2.57;;
4555;SDS011;2290;48.674;9.018;2023-01-19T09:15:32;3.70;;;2.90;;
4555;SDS011;2290;48.674;9.018;2023-01-19T09:18:00;3.60;;;2.73;;
4555;SDS011;2290;48.674;9.018;2023-01-19T09:20:26;3.13;;;2.37;;
4555;SDS011;2290;48.674;9.018;2023-01-19T09:22:54;3.97;;;2.47;;
4555;SDS011;2290;48.674;9.018;2023-01-19T09:25:21;6.40;;;2.70;;
4555;SDS011;2290;48.674;9.018;2023-01-19T09:27:46;6.10;;;2.70;;
4555;SDS011;2290;48.674;9.018;2023-01-19T09:30:12;5.90;;;2.83;;
4555;SDS011;2290;48.674;9.018;2023-01-19T09:32:38;6.07;;;2.90;;
4555;SDS011;2290;48.674;9.018;2023-01-19T09:35:03;2.30;;;2.10;;
4555;SDS011;2290;48.674;9.018;2023-01-19T09:37:29;2.60;;;2.30;;
4555;SDS011;2290;48.674;9.018;2023-01-19T09:39:55;5.10;;;2.43;;
4555;SDS011;2290;48.674;9.018;2023-01-19T09:45:07;4.57;;;2.80;;
4555;SDS011;2290;48.674;9.018;2023-01-19T09:47:43;5.20;;;2.17;;
4555;SDS011;2290;48.674;9.018;2023-01-19T09:50:14;5.67;;;2.87;;
4555;SDS011;2290;48.674;9.018;2023-01-19T09:53:03;4.23;;;3.00;;
4555;SDS011;2290;48.674;9.018;2023-01-19T09:55:38;3.50;;;2.60;;
4555;SDS011;2290;48.674;9.018;2023-01-19T09:58:08;6.03;;;3.07;;
4555;SDS011;2290;48.674;9.018;2023-01-19T10:00:40;4.43;;;2.93;;
4555;SDS011;2290;48.674;9.018;2023-01-19T10:03:13;5.93;;;3.00;;
4555;SDS011;2290;48.674;9.018;2023-01-19T10:05:45;4.60;;;2.53;;
4555;SDS011;2290;48.674;9.018;2023-01-19T10:08:28;3.97;;;3.00;;
4555;SDS011;2290;48.674;9.018;2023-01-19T10:10:56;6.50;;;2.90;;
4555;SDS011;2290;48.674;9.018;2023-01-19T10:13:39;4.30;;;2.57;;
4555;SDS011;2290;48.674;9.018;2023-01-19T10:19:01;7.73;;;2.70;;
4555;SDS011;2290;48.674;9.018;2023-01-19T10:22:03;3.60;;;2.60;;
4555;SDS011;2290;48.674;9.018;2023-01-19T10:24:49;5.60;;;3.07;;
4555;SDS011;2290;48.674;9.018;2023-01-19T10:27:20;5.37;;;3.53;;
4555;SDS011;2290;48.674;9.018;2023-01-19T10:29:50;5.13;;;2.97;;
4555;SDS011;2290;48.674;9.018;2023-01-19T10:32:17;6.50;;;2.70;;
4555;SDS011;2290;48.674;9.018;2023-01-19T10:34:49;3.33;;;2.40;;
4555;SDS011;2290;48.674;9.018;2023-01-19T10:42:27;6.87;;;3.07;;
4555;SDS011;2290;48.674;9.018;2023-01-19T10:47:32;4.53;;;2.67;;
4555;SDS011;2290;48.674;9.018;2023-01-19T11:10:43;3.37;;;2.37;;
4555;SDS011;2290;48.674;9.018;2023-01-19T11:13:18;3.57;;;2.30;;
4555;SDS011;2290;48.674;9.018;2023-01-19T11:15:49;7.00;;;2.90;;
4555;SDS011;2290;48.674;9.018;2023-01-19T11:18:28;12.07;;;2.80;;
4555;SDS011;2290;48.674;9.018;2023-01-19T11:21:00;3.70;;;2.90;;
4555;SDS011;2290;48.674;9.018;2023-01-19T11:23:31;5.73;;;2.90;;
4555;SDS011;2290;48.674;9.018;2023-01-19T11:25:58;3.50;;;2.40;;
4555;SDS011;2290;48.674;9.018;2023-01-19T11:28:33;5.33;;;2.33;;
4555;SDS011;2290;48.674;9.018;2023-01-19T11:31:01;5.80;;;3.10;;
4555;SDS011;2290;48.674;9.018;2023-01-19T11:33:48;1.90;;;1.80;;
4555;SDS011;2290;48.674;9.018;2023-01-19T11:36:16;4.60;;;2.87;;
4555;SDS011;2290;48.674;9.018;2023-01-19T11:38:45;4.73;;;2.63;;
4555;SDS011;2290;48.674;9.018;2023-01-19T11:41:21;4.57;;;3.20;;
4555;SDS011;2290;48.674;9.018;2023-01-19T11:43:52;4.70;;;2.63;;
4555;SDS011;2290;48.674;9.018;2023-01-19T11:46:21;7.23;;;3.00;;
4555;SDS011;2290;48.674;9.018;2023-01-19T11:51:33;4.00;;;2.77;;
4555;SDS011;2290;48.674;9.018;2023-01-19T11:54:16;5.90;;;3.00;;
4555;SDS011;2290;48.674;9.018;2023-01-19T11:56:47;4.10;;;3.07;;
4555;SDS011;2290;48.674;9.018;2023-01-19T11:59:16;5.60;;;2.80;;
4555;SDS011;2290;48.674;9.018;2023-01-19T12:01:45;4.80;;;2.70;;
4555;SDS011;2290;48.674;9.018;2023-01-19T12:04:19;2.80;;;2.37;;
4555;SDS011;2290;48.674;9.018;2023-01-19T12:06:54;6.93;;;2.50;;
4555;SDS011;2290;48.674;9.018;2023-01-19T12:09:22;4.40;;;2.87;;
4555;SDS011;2290;48.674;9.018;2023-01-19T12:11:53;3.93;;;3.00;;
4555;SDS011;2290;48.674;9.018;2023-01-19T12:14:37;4.03;;;2.70;;
4555;SDS011;2290;48.674;9.018;2023-01-19T12:17:26;8.07;;;2.90;;
4555;SDS011;2290;48.674;9.018;2023-01-19T12:22:56;4.10;;;2.43;;
4555;SDS011;2290;48.674;9.018;2023-01-19T12:28:48;9.23;;;2.47;;
4555;SDS011;2290;48.674;9.018;2023-01-19T12:31:16;2.73;;;2.30;;
4555;SDS011;2290;48.674;9.018;2023-01-19T12:33:44;4.23;;;2.90;;
4555;SDS011;2290;48.674;9.018;2023-01-19T12:36:12;4.20;;;2.40;;
4555;SDS011;2290;48.674;9.018;2023-01-19T12:39:14;2.13;;;1.97;;
4555;SDS011;2290;48.674;9.018;2023-01-19T12:41:41;3.73;;;2.07;;
4555;SDS011;2290;48.674;9.018;2023-01-19T13:02:56;3.60;;;2.70;;
4555;SDS011;2290;48.674;9.018;2023-01-19T13:13:36;3.50;;;2.43;;
4555;SDS011;2290;48.674;9.018;2023-01-19T13:21:34;3.33;;;2.30;;
4555;SDS011;2290;48.674;9.018;2023-01-19T13:24:14;3.17;;;2.60;;
4555;SDS011;2290;48.674;9.018;2023-01-19T13:31:50;6.50;;;2.20;;
4555;SDS011;2290;48.674;9.018;2023-01-19T13:34:26;5.43;;;3.23;;
4555;SDS011;2290;48.674;9.018;2023-01-19T13:36:55;3.13;;;2.67;;
4555;SDS011;2290;48.674;9.018;2023-01-19T13:39:34;4.90;;;2.57;;
4555;SDS011;2290;48.674;9.018;2023-01-19T13:42:06;2.83;;;2.30;;
4555;SDS011;2290;48.674;9.018;2023-01-19T13:44:57;2.10;;;1.80;;
4555;SDS011;2290;48.674;9.018;2023-01-19T13:47:28;2.73;;;2.23;;
4555;SDS011;2290;48.674;9.018;2023-01-19T13:50:06;4.23;;;2.33;;
4555;SDS011;2290;48.674;9.018;2023-01-19T13:52:42;4.90;;;2.53;;
4555;SDS011;2290;48.674;9.018;2023-01-19T13:55:11;3.30;;;2.27;;
4555;SDS011;2290;48.674;9.018;2023-01-19T13:57:44;5.67;;;2.40;;
4555;SDS011;2290;48.674;9.018;2023-01-19T14:15:48;3.83;;;2.13;;
4555;SDS011;2290;48.674;9.018;2023-01-19T14:25:59;13.83;;;2.80;;
4555;SDS011;2290;48.674;9.018;2023-01-19T14:28:28;5.60;;;2.17;;
4555;SDS011;2290;48.674;9.018;2023-01-19T14:31:22;2.50;;;2.30;;
4555;SDS011;2290;48.674;9.018;2023-01-19T14:33:52;3.00;;;1.80;;
4555;SDS011;2290;48.674;9.018;2023-01-19T14:38:50;4.17;;;2.83;;
4555;SDS011;2290;48.674;9.018;2023-01-19T14:41:49;4.97;;;2.50;;
4555;SDS011;2290;48.674;9.018;2023-01-19T14:44:15;4.30;;;2.33;;
4555;SDS011;2290;48.674;9.018;2023-01-19T14:46:45;2.90;;;2.03;;
4555;SDS011;2290;48.674;9.018;2023-01-19T14:49:12;3.33;;;2.27;;
4555;SDS011;2290;48.674;9.018;2023-01-19T14:51:53;3.00;;;1.97;;
4555;SDS011;2290;48.674;9.018;2023-01-19T14:54:26;2.50;;;2.13;;
4555;SDS011;2290;48.674;9.018;2023-01-19T14:57:02;2.80;;;2.10;;
4555;SDS011;2290;48.674;9.018;2023-01-19T14:59:28;3.20;;;2.47;;
4555;SDS011;2290;48.674;9.018;2023-01-19T15:01:54;3.40;;;2.20;;
4555;SDS011;2290;48.674;9.018;2023-01-19T15:04:19;2.97;;;2.27;;
4555;SDS011;2290;48.674;9.018;2023-01-19T15:06:45;6.07;;;2.13;;
4555;SDS011;2290;48.674;9.018;2023-01-19T15:09:12;2.93;;;1.87;;
4555;SDS011;2290;48.674;9.018;2023-01-19T15:11:39;2.67;;;2.30;;
4555;SDS011;2290;48.674;9.018;2023-01-19T15:14:05;3.10;;;2.17;;
4555;SDS011;2290;48.674;9.018;2023-01-19T15:16:35;2.47;;;1.90;;
4555;SDS011;2290;48.674;9.018;2023-01-19T15:19:00;3.73;;;2.30;;
4555;SDS011;2290;48.674;9.018;2023-01-19T15:21:26;3.43;;;2.20;;
4555;SDS011;2290;48.674;9.018;2023-01-19T15:23:53;6.43;;;2.30;;
4555;SDS011;2290;48.674;9.018;2023-01-19T15:26:20;3.43;;;2.07;;
4555;SDS011;2290;48.674;9.018;2023-01-19T15:28:48;2.77;;;2.50;;
4555;SDS011;2290;48.674;9.018;2023-01-19T15:31:15;4.27;;;2.43;;
4555;SDS011;2290;48.674;9.018;2023-01-19T15:33:42;2.80;;;2.13;;
4555;SDS011;2290;48.674;9.018;2023-01-19T15:36:15;3.80;;;2.40;;
4555;SDS011;2290;48.674;9.018;2023-01-19T15:38:45;3.80;;;2.10;;
4555;SDS011;2290;48.674;9.018;2023-01-19T15:41:19;3.60;;;2.60;;
4555;SDS011;2290;48.674;9.018;2023-01-19T15:43:48;2.13;;;1.90;;
4555;SDS011;2290;48.674;9.018;2023-01-19T15:48:49;2.13;;;1.90;;
4555;SDS011;2290;48.674;9.018;2023-01-19T16:01:36;2.87;;;2.10;;
4555;SDS011;2290;48.674;9.018;2023-01-19T16:19:26;3.40;;;1.97;;
4555;SDS011;2290;48.674;9.018;2023-01-19T16:21:52;3.20;;;2.20;;
4555;SDS011;2290;48.674;9.018;2023-01-19T16:24:17;3.50;;;2.40;;
4555;SDS011;2290;48.674;9.018;2023-01-19T16:26:43;5.33;;;2.40;;
4555;SDS011;2290;48.674;9.018;2023-01-19T16:29:09;2.63;;;2.00;;
4555;SDS011;2290;48.674;9.018;2023-01-19T16:31:38;2.97;;;2.00;;
4555;SDS011;2290;48.674;9.018;2023-01-19T16:34:05;3.47;;;2.30;;
4555;SDS011;2290;48.674;9.018;2023-01-19T16:36:32;4.30;;;2.50;;
4555;SDS011;2290;48.674;9.018;2023-01-19T16:38:59;3.43;;;2.67;;
4555;SDS011;2290;48.674;9.018;2023-01-19T16:41:26;7.47;;;2.93;;
4555;SDS011;2290;48.674;9.018;2023-01-19T16:43:53;4.30;;;2.80;;
4555;SDS011;2290;48.674;9.018;2023-01-19T16:46:22;3.00;;;2.33;;
4555;SDS011;2290;48.674;9.018;2023-01-19T16:48:50;6.50;;;2.80;;
4555;SDS011;2290;48.674;9.018;2023-01-19T16:51:16;4.00;;;2.90;;
4555;SDS011;2290;48.674;9.018;2023-01-19T16:53:42;4.67;;;2.90;;
4555;SDS011;2290;48.674;9.018;2023-01-19T16:56:09;4.33;;;2.37;;
4555;SDS011;2290;48.674;9.018;2023-01-19T16:58:37;3.30;;;2.73;;
4555;SDS011;2290;48.674;9.018;2023-01-19T17:01:10;6.00;;;2.53;;
4555;SDS011;2290;48.674;9.018;2023-01-19T17:03:43;3.00;;;2.70;;
4555;SDS011;2290;48.674;9.018;2023-01-19T17:06:10;4.10;;;2.90;;
4555;SDS011;2290;48.674;9.018;2023-01-19T17:08:37;5.90;;;3.20;;
4555;SDS011;2290;48.674;9.018;2023-01-19T17:11:07;4.63;;;3.60;;
4555;SDS011;2290;48.674;9.018;2023-01-19T17:13:35;4.87;;;2.73;;
4555;SDS011;2290;48.674;9.018;2023-01-19T17:16:01;5.70;;;3.00;;
4555;SDS011;2290;48.674;9.018;2023-01-19T17:18:28;3.50;;;2.60;;
4555;SDS011;2290;48.674;9.018;2023-01-19T17:21:04;4.60;;;3.00;;
4555;SDS011;2290;48.674;9.018;2023-01-19T17:23:32;4.67;;;2.90;;
4555;SDS011;2290;48.674;9.018;2023-01-19T17:25:58;5.33;;;2.70;;
4555;SDS011;2290;48.674;9.018;2023-01-19T17:28:24;4.30;;;2.17;;
4555;SDS011;2290;48.674;9.018;2023-01-19T17:30:50;2.93;;;2.30;;
4555;SDS011;2290;48.674;9.018;2023-01-19T17:33:17;3.90;;;2.10;;
4555;SDS011;2290;48.674;9.018;2023-01-19T17:35:44;5.10;;;2.90;;
4555;SDS011;2290;48.674;9.018;2023-01-19T17:38:09;3.87;;;2.67;;
4555;SDS011;2290;48.674;9.018;2023-01-19T17:40:35;3.60;;;2.23;;
4555;SDS011;2290;48.674;9.018;2023-01-19T17:43:02;3.97;;;2.40;;
4555;SDS011;2290;48.674;9.018;2023-01-19T17:45:27;3.53;;;2.30;;
4555;SDS011;2290;48.674;9.018;2023-01-19T17:47:53;3.17;;;2.20;;
4555;SDS011;2290;48.674;9.018;2023-01-19T17:50:19;3.37;;;2.40;;
4555;SDS011;2290;48.674;9.018;2023-01-19T17:52:44;3.30;;;2.27;;
4555;SDS011;2290;48.674;9.018;2023-01-19T17:55:10;2.23;;;2.03;;
4555;SDS011;2290;48.674;9.018;2023-01-19T17:57:36;5.07;;;2.23;;
4555;SDS011;2290;48.674;9.018;2023-01-19T18:00:03;5.30;;;2.80;;
4555;SDS011;2290;48.674;9.018;2023-01-19T18:02:29;4.43;;;2.87;;
4555;SDS011;2290;48.674;9.018;2023-01-19T18:04:58;8.93;;;2.97;;
4555;SDS011;2290;48.674;9.018;2023-01-19T18:07:26;4.50;;;2.40;;
4555;SDS011;2290;48.674;9.018;2023-01-19T18:09:52;2.60;;;2.00;;
4555;SDS011;2290;48.674;9.018;2023-01-19T18:12:20;3.73;;;2.20;;
4555;SDS011;2290;48.674;9.018;2023-01-19T18:14:47;4.60;;;2.37;;